• Join FlightAware (Why Join?)
  • Login
  • US Flag 
05:06AM EDT


 

Airport Tracker/Info


-or-


 

Live Flight TrackerFlight Track Log ✈ RPA3228 ✈ 12-Sep-2013 ✈ KDCA - KBUF

Flight Track Log - Related Links

Times and Time Zones

All times are in EDT time to prevent confusion due to time zone crossing. See the RPA3228 flight status page for this flight to view local times or setup timezone preferences in your user account.

Time Position Orientation Groundspeed Altitude Reporting Facility
EDT Latitude Longitude Course Direction KTS MPH feet Rate Location/Type
10:50AM 38.7833 -77.0333 North 197 227 2,100  Level Potomac TRACON
10:51AM 38.7167 -77.0333 180° South 276 318 4,400 1,380 Climbing Potomac TRACON
10:52AM 39.2468 -77.1920 337° Northwest  Level Estimated
10:52AM 38.7000 -77.1167 256° West 264 304 5,000  Level Potomac TRACON
10:53AM 39.3784 -77.2438 339° North  Level Estimated
10:53AM 38.6833 -77.2167 258° West 272 313 6,800  Level Potomac TRACON
10:54AM 39.5100 -77.2958 339° North  Level Estimated
10:54AM 38.7333 -77.2833 314° West 289 333 9,600  Level Potomac TRACON
10:55AM 39.6416 -77.3480 North  Level Estimated
10:55AM 38.8000 -77.3333 330° Northwest 310 357 11,500  Level Potomac TRACON
10:56AM 39.7302 -77.3833 North  Level Estimated
10:56AM 38.8833 -77.4000 328° Northwest 302 348 13,900  Level Potomac TRACON
10:57AM 38.9500 -77.4167 349° North 285 328 14,800 1,500 Climbing Potomac TRACON
10:58AM 39.0667 -77.4333 354° North 317 365 17,000 780 Climbing Potomac TRACON
11:00AM 39.2297 -77.4967 343° North 354 407 17,000 600 Level Washington Center
11:01AM 39.3319 -77.4886 North 347 399 18,700 1,620 Climbing Washington Center
11:02AM 39.4364 -77.4753 North 352 405 20,300 1,440 Climbing Washington Center
11:04AM 39.6381 -77.4597 North 385 443 22,800 1,260 Climbing New York Center
11:05AM 39.7492 -77.4892 348° North 385 443 24,000 600 Climbing New York Center
11:06AM 39.8575 -77.5267 345° North 391 450 24,000  Level New York Center
11:07AM 39.9639 -77.5639 345° North 391 450 24,000  Level New York Center
11:08AM 40.0681 -77.6014 345° North 396 456 24,000  Level New York Center
11:09AM 40.1764 -77.6364 346° North 391 450 24,000  Level New York Center
11:10AM 40.2828 -77.6742 345° North 391 450 24,000  Level New York Center
11:12AM 40.4569 -77.7369 345° North 404 465 24,000  Level Cleveland Center
11:13AM 40.5769 -77.7811 344° North 404 465 24,000  Level Cleveland Center
11:14AM 40.6861 -77.8203 345° North 404 465 24,000  Level Cleveland Center
11:15AM 40.7956 -77.8567 346° North 404 465 24,000  Level Cleveland Center
11:16AM 40.9028 -77.8989 343° North 399 459 24,000  Level Cleveland Center
11:17AM 41.0100 -77.9358 345° North 399 459 24,000  Level Cleveland Center
11:18AM 41.1194 -77.9756 345° North 404 465 24,000  Level Cleveland Center
11:19AM 41.2286 -78.0128 346° North 404 465 24,000  Level Cleveland Center
11:20AM 41.3358 -78.0556 343° North 404 465 24,000  Level Cleveland Center
11:21AM 41.4453 -78.0928 346° North 404 465 24,000 -360 Level Cleveland Center
11:22AM 41.5439 -78.1278 345° North 399 459 23,300 -540 Descending Cleveland Center
11:23AM 41.6469 -78.1683 344° North 399 459 23,000 -300 Descending Cleveland Center
11:24AM 41.7519 -78.2117 343° North 399 459 22,700 -900 Descending Cleveland Center
11:25AM 41.8392 -78.2894 326° Northwest 383 441 21,300 -900 Descending Cleveland Center
11:26AM 41.9361 -78.3444 337° Northwest 376 433 21,000 -180 Descending Cleveland Center
11:27AM 42.0408 -78.3744 348° North 376 433 21,000 -780 Level Cleveland Center
11:28AM 42.1514 -78.3789 358° North 387 445 19,500 -1,980 Descending Cleveland Center
11:29AM 42.2700 -78.3692 North 392 451 17,100 -2,340 Descending Cleveland Center
11:30AM 42.3742 -78.3572 North 381 438 14,900 -2,160 Descending Cleveland Center
11:31AM 42.4742 -78.3592 359° North 376 433 12,800 -1,920 Descending Cleveland Center
11:32AM 42.5683 -78.3758 353° North 360 414 11,100 -1,380 Descending Cleveland Center
11:33AM 42.6561 -78.3867 355° North 336 387 10,100 -1,260 Descending Cleveland Center
11:34AM 42.7417 -78.3978 355° North 314 361 8,600 -1,620 Descending Cleveland Center
11:35AM 42.8169 -78.4067 355° North 293 337 6,900 -1,740 Descending Cleveland Center
11:36AM 42.8781 -78.4469 334° Northwest 268 308 5,200 -1,680 Descending Cleveland Center
11:37AM 42.9417 -78.4931 332° Northwest 262 302 3,600 -1,500 Descending Cleveland Center
11:38AM 43.0092 -78.5392 333° Northwest 246 283 2,300 -660 Descending Cleveland Center
11:39AM 43.0331 -78.6008 298° West 193 222 2,300  Level Cleveland Center
11:39AM 43.0167 -78.6333 235° Southwest 198 228 2,300 -480 Level Buffalo TRACON
11:40AM 42.9833 -78.6833 228° Southwest 143 165 1,500 -720 Descending Buffalo TRACON
11:41AM 42.9500 -78.7167 216° Southwest 113 130 800 -720 Descending Buffalo TRACON